Latest Coastal Weather Observations for Norah Head

IDN60701

Issued at 9:02 am EDT Tuesday 23 December 2014 (issued every 10 minutes, with the page automatically refreshed every 10 minutes)

About coastal observations | Map of coastal stations | Coastal observations for NSW | Marine services | Other Formats
Station Details ID: 061366 Name: NORAH HEAD AWS Lat: -33.28 Lon: 151.58 Height: 18.8 m
Data from the previous 72 hours. | See also: Recent months at Norah Head
Date/Time
EDT
Temp

°C
Wind Pressure Rain
since 9am
mm
Weather Cloud Vis
km
Sea
Height
m
Swell
Dir
 
Speed
knots
Gust
knots
hPa Trend Height
m
Period
s
Dir
23/09:00am 19.6 NNE 15 17 1014.8 - 3.0 Rain - - - - - -
23/08:30am 19.6 N 13 15 1015.6 - 2.8 - - - - - - -
23/08:00am 19.9 NNE 13 15 1015.2 - 1.8 - - - - - - -
23/07:30am 20.0 NNE 13 15 1015.0 - 1.0 - - - - - - -
23/07:00am 20.1 NNE 13 15 1014.7 - 0.4 - - - - - - -
23/06:30am 20.1 NNE 13 15 1014.7 - 0.2 - - - - - - -
23/06:00am 20.3 NNE 12 13 1014.7 - 0.0 - - - - - - -
23/05:30am 20.8 NNE 14 16 1014.2 - 0.0 - - - - - - -
23/05:00am 20.9 NNE 14 16 1014.1 - 0.0 - - - - - - -
23/04:30am 20.6 NE 11 14 1014.0 - 0.0 - - - - - - -
23/04:00am 20.7 NNE 10 11 1014.2 - 0.0 - - - - - - -
23/03:30am 20.7 NNE 9 10 1014.3 - 0.0 - - - - - - -
23/03:00am 20.9 NNE 11 13 1014.3 - 0.0 - - - - - - -
23/02:30am 20.7 N 11 13 1014.5 - 0.0 - - - - - - -
23/02:00am 20.9 NNE 16 20 1014.4 - 0.0 - - - - - - -
23/01:30am 21.1 NNE 18 22 1014.2 - 0.0 - - - - - - -
23/01:00am 21.0 NE 19 22 1014.3 - 0.0 - - - - - - -
23/12:30am 21.1 NE 18 20 1014.7 - 0.0 - - - - - - -
23/12:00am 21.1 NE 17 21 1015.0 - 0.0 - - - - - - -
 
Date/Time
EDT
Temp

°C
Wind Pressure Rain
since 9am
mm
Weather Cloud Vis
km
Sea
Height
m
Swell
Dir
 
Speed
knots
Gust
knots
hPa Trend Height
m
Period
s
Dir
22/11:30pm 21.2 NNE 17 19 1015.4 - 0.0 - - - - - - -
22/11:00pm 21.4 NNE 17 20 1015.6 - 0.0 - - - - - - -
22/10:30pm 21.4 NNE 22 26 1015.4 - 0.0 - - - - - - -
22/10:00pm 21.5 NNE 23 27 1015.3 - 0.0 - - - - - - -
22/09:30pm 21.6 NNE 24 28 1015.3 - 0.0 - - - - - - -
22/09:00pm 21.7 NNE 23 28 1015.3 - 0.0 - - - - - - -
22/08:30pm 21.8 NNE 22 27 1015.4 - 0.0 - - - - - - -
22/08:00pm 21.9 NNE 22 25 1015.7 - 0.0 - - - - - - -
22/07:30pm 22.1 NNE 21 27 1015.8 - 0.0 - - - - - - -
22/07:00pm 22.1 NNE 22 27 1015.6 - 0.0 - - - - - - -
22/06:30pm 22.2 NE 25 30 1014.7 - 0.0 - - - - - - -
22/06:00pm 22.3 NE 25 29 1014.2 - 0.0 - - - - - - -
22/05:30pm 22.4 NE 25 29 1014.1 - 0.0 - - - - - - -
22/05:00pm 22.8 NE 24 28 1014.4 - 0.0 - - - - - - -
22/04:30pm 22.9 NE 25 31 1014.2 - 0.0 - - - - - - -
22/04:00pm 23.4 NE 25 31 1014.1 - 0.0 - - - - - - -
22/03:30pm 23.7 NE 25 30 1014.1 - 0.0 - - - - - - -
22/03:00pm 23.8 NE 23 27 1014.5 - 0.0 - - - - - - -
22/02:30pm 24.3 NE 23 27 1014.8 - 0.0 - - - - - - -
22/02:00pm 24.6 NE 21 25 1015.4 - 0.0 - - - - - - -
22/01:30pm 25.1 NE 20 24 1015.9 - 0.0 - - - - - - -
22/01:00pm 24.8 NE 19 24 1016.2 - 0.0 - - - - - - -
22/12:30pm 24.7 NNE 17 20 1016.5 - 0.0 - - - - - - -
22/12:00pm 24.9 NE 15 17 1016.7 - 0.0 - - - - - - -
22/11:30am 25.3 NE 13 16 1016.8 - 0.0 - - - - - - -
22/11:00am 25.4 NE 12 15 1016.8 - 0.0 - - - - - - -
22/10:30am 24.9 NE 11 13 1017.0 - 0.0 - - - - - - -
22/10:00am 24.0 NNE 12 13 1017.2 - 0.0 - - - - - - -
22/09:30am 22.7 NNE 13 15 1016.8 - 0.0 - - - - - - -
22/09:00am 23.2 NNE 12 13 1016.8 - 0.0 - - - - - - -
22/08:30am 22.9 N 5 8 1016.9 - 0.0 - - - - - - -
22/08:00am 22.4 N 5 8 1016.8 - 0.0 - - - - - - -
22/07:30am 21.9 NNW 5 7 1016.5 - 0.0 - - - - - - -
22/07:00am 21.3 N 10 11 1015.8 - 0.0 - - - - - - -
22/06:30am 21.0 NNE 12 14 1015.5 - 0.0 - - - - - - -
22/06:00am 20.7 NNE 13 15 1015.0 - 0.0 - - - - - - -
22/05:30am 20.8 NNE 14 17 1014.5 - 0.0 - - - - - - -
22/05:00am 20.6 NNE 13 15 1014.4 - 0.0 - - - - - - -
22/04:30am 20.2 NE 9 11 1014.8 - 0.0 - - - - - - -
22/04:00am 20.2 NE 9 11 1014.7 - 0.0 - - - - - - -
22/03:30am 19.9 NE 5 6 1015.0 - 0.0 - - - - - - -
22/03:00am 19.9 NNE 5 6 1015.3 - 0.0 - - - - - - -
22/02:30am 20.4 NNW 4 6 1015.1 - 0.0 - - - - - - -
22/02:00am 20.8 NNE 12 14 1015.1 - 0.0 - - - - - - -
22/01:30am 21.0 NNE 14 16 1014.9 - 0.0 - - - - - - -
22/01:00am 21.0 NNE 15 17 1015.4 - 0.0 - - - - - - -
22/12:30am 21.1 NNE 16 18 1015.5 - 0.0 - - - - - - -
22/12:00am 21.2 NNE 17 19 1015.8 - 0.0 - - - - - - -
 
Date/Time
EDT
Temp

°C
Wind Pressure Rain
since 9am
mm
Weather Cloud Vis
km
Sea
Height
m
Swell
Dir
 
Speed
knots
Gust
knots
hPa Trend Height
m
Period
s
Dir
21/11:30pm 21.2 NNE 17 20 1015.9 - 0.0 - - - - - - -
21/11:00pm 21.3 NNE 17 19 1016.3 - 0.0 - - - - - - -
21/10:30pm 21.3 NNE 17 20 1016.4 - 0.0 - - - - - - -
21/10:00pm 21.6 NNE 20 23 1016.4 - 0.0 - - - - - - -
21/09:30pm 21.6 NNE 23 27 1015.8 - 0.0 - - - - - - -
21/09:00pm 21.7 NNE 22 25 1015.6 - 0.0 - - - - - - -
21/08:30pm 21.8 NNE 22 27 1015.4 - 0.0 - - - - - - -
21/08:00pm 21.8 NE 24 29 1015.0 - 0.0 - - - - - - -
21/07:30pm 21.9 NE 22 28 1015.0 - 0.0 - - - - - - -
21/07:00pm 22.2 NE 20 23 1015.3 - 0.0 - - - - - - -
21/06:30pm 22.4 NE 19 23 1015.2 - 0.0 - - - - - - -
21/06:00pm 22.7 NE 18 21 1015.1 - 0.0 - - - - - - -
21/05:30pm 23.0 NE 17 20 1015.2 - 0.0 - - - - - - -
21/05:00pm 23.3 NE 16 19 1015.3 - 0.0 - - - - - - -
21/04:30pm 25.0 NE 14 17 1015.5 - 0.0 - - - - - - -
21/04:00pm 25.7 NE 13 16 1015.9 - 0.0 - - - - - - -
21/03:30pm 27.2 NE 14 16 1016.0 - 0.0 - - - - - - -
21/03:00pm 27.3 NE 13 16 1016.3 - 0.0 - - - - - - -
21/02:30pm 26.3 ENE 13 15 1016.4 - 0.0 - - - - - - -
21/02:00pm 25.8 ENE 12 14 1017.0 - 0.0 - - - - - - -
21/01:30pm 25.8 ENE 11 14 1017.2 - 0.0 - - - - - - -
21/01:00pm 26.1 ENE 10 12 1017.7 - 0.0 - - - - - - -
21/12:30pm 26.3 ENE 10 11 1017.9 - 0.0 - - - - - - -
21/12:00pm 26.2 ENE 10 11 1017.9 - 0.0 - - - - - - -
21/11:30am 26.7 ENE 9 11 1018.0 - 0.0 - - - - - - -
21/11:00am 27.1 ENE 8 10 1018.2 - 0.0 - - - - - - -
21/10:30am 24.7 E 6 7 1018.1 - 0.0 - - - - - - -
21/10:00am 23.3 E 3 4 1018.4 - 0.0 - - - - - - -
21/09:30am 23.9 ENE 3 4 1018.4 - 0.0 - - - - - - -
21/09:00am 22.8 ESE 2 3 1018.5 - 0.0 - - - - - - -
21/08:30am 22.7 CALM 0 2 1018.5 - 0.0 - - - - - - -
21/08:00am 21.7 S 1 2 1018.3 - 0.0 - - - - - - -
21/07:30am 21.3 CALM 0 0 1017.9 - 0.0 - - - - - - -
21/07:00am 20.2 CALM 0 0 1017.7 - 0.0 - - - - - - -
21/06:30am 19.0 CALM 0 0 1017.4 - 0.0 - - - - - - -
21/06:00am 18.5 CALM 0 0 1017.2 - 0.0 - - - - - - -
21/05:30am 18.7 N 1 2 1017.0 - 0.0 - - - - - - -
21/05:00am 18.9 NNW 2 3 1016.8 - 0.0 - - - - - - -
21/04:30am 19.2 NNW 3 5 1016.7 - 0.0 - - - - - - -
21/04:00am 19.6 NE 8 10 1016.7 - 0.0 - - - - - - -
21/03:30am 19.7 NE 9 10 1016.7 - 0.0 - - - - - - -
21/03:00am 19.6 NE 8 10 1016.9 - 0.0 - - - - - - -
21/02:30am 19.9 NE 9 9 1017.1 - 0.0 - - - - - - -
21/02:00am 19.8 NE 7 8 1017.4 - 0.0 - - - - - - -
21/01:30am 19.7 NE 8 9 1017.6 - 0.0 - - - - - - -
21/01:00am 19.9 NE 8 9 1017.9 - 0.0 - - - - - - -
21/12:30am 19.9 NE 8 9 1018.1 - 0.0 - - - - - - -
21/12:00am 20.3 NNE 9 11 1018.3 - 0.0 - - - - - - -
 
Date/Time
EDT
Temp

°C
Wind Pressure Rain
since 9am
mm
Weather Cloud Vis
km
Sea
Height
m
Swell
Dir
 
Speed
knots
Gust
knots
hPa Trend Height
m
Period
s
Dir
20/11:30pm 20.3 NNE 10 12 1018.4 - 0.0 - - - - - - -
20/11:00pm 20.2 NE 11 13 1018.5 - 0.0 - - - - - - -
20/10:30pm 19.9 NE 11 13 1018.5 - 0.0 - - - - - - -
20/10:00pm 19.9 NE 10 12 1018.5 - 0.0 - - - - - - -
20/09:30pm 19.9 NE 11 12 1018.3 - 0.0 - - - - - - -
20/09:00pm 19.8 NE 11 13 1017.8 - 0.0 - - - - - - -
20/08:30pm 20.1 NE 12 14 1017.5 - 0.0 - - - - - - -
20/08:00pm 20.0 NE 11 13 1017.3 - 0.0 - - - - - - -
20/07:30pm 20.3 NE 11 12 1017.1 - 0.0 - - - - - - -
20/07:00pm 21.1 ENE 10 12 1016.8 - 0.0 - - - - - - -
20/06:30pm 21.4 ENE 10 12 1016.4 - 0.0 - - - - - - -
20/06:00pm 21.5 ENE 11 13 1016.0 - 0.0 - - - - - - -
20/05:30pm 21.8 E 10 12 1015.9 - 0.0 - - - - - - -
20/05:00pm 21.9 E 11 13 1015.8 - 0.0 - - - - - - -
20/04:30pm 22.2 E 10 12 1016.2 - 0.0 - - - - - - -
20/04:00pm 22.3 E 10 12 1016.3 - 0.0 - - - - - - -
20/03:30pm 22.6 E 10 11 1016.5 - 0.0 - - - - - - -
20/03:00pm 22.8 E 9 11 1016.7 - 0.0 - - - - - - -
20/02:30pm 22.9 ESE 9 11 1016.7 - 0.0 - - - - - - -
20/02:00pm 23.1 E 8 9 1017.1 - 0.0 - - - - - - -
20/01:30pm 23.2 ESE 7 9 1017.4 - 0.0 - - - - - - -
20/01:00pm 23.1 ESE 7 9 1017.8 - 0.0 - - - - - - -
20/12:30pm 23.3 SE 7 8 1018.1 - 0.0 - - - - - - -
20/12:00pm 23.1 SE 6 8 1018.3 - 0.0 - - - - - - -
20/11:30am 23.1 SSE 6 8 1018.4 - 0.0 - - - - - - -
20/11:00am 22.7 SSE 7 9 1018.3 - 0.0 - - - - - - -
20/10:30am 22.9 S 6 9 1018.4 - 0.0 - - - - - - -
20/10:00am 23.2 S 8 10 1018.3 - 0.0 - - - - - - -
20/09:30am 22.0 SSE 8 11 1018.3 - 0.0 - - - - - - -

Other Formats:

Comma delimited format used in spreadsheet applications
http://www.bom.gov.au/fwo/IDN60701/IDN60701.95770.axf

JavaScript Object Notation format (JSON) in row-major order
http://www.bom.gov.au/fwo/IDN60701/IDN60701.95770.json